sensor_id;sensor_type;location;lat;lon;timestamp;temperature;humidity
49379;DHT22;35254;47.990;-1.608;2023-09-30T00:02:22;24.10;59.50
49379;DHT22;35254;47.990;-1.608;2023-09-30T00:04:48;24.10;59.40
49379;DHT22;35254;47.990;-1.608;2023-09-30T00:07:13;24.00;59.50
49379;DHT22;35254;47.990;-1.608;2023-09-30T00:09:39;24.10;59.60
49379;DHT22;35254;47.990;-1.608;2023-09-30T00:12:05;24.10;59.20
49379;DHT22;35254;47.990;-1.608;2023-09-30T00:14:32;24.00;59.20
49379;DHT22;35254;47.990;-1.608;2023-09-30T00:16:57;24.10;59.30
49379;DHT22;35254;47.990;-1.608;2023-09-30T00:19:23;24.00;59.10
49379;DHT22;35254;47.990;-1.608;2023-09-30T00:21:49;24.00;59.10
49379;DHT22;35254;47.990;-1.608;2023-09-30T00:24:14;24.00;59.10
49379;DHT22;35254;47.990;-1.608;2023-09-30T00:26:40;24.00;59.00
49379;DHT22;35254;47.990;-1.608;2023-09-30T00:29:06;24.00;59.20
49379;DHT22;35254;47.990;-1.608;2023-09-30T00:31:31;24.00;59.00
49379;DHT22;35254;47.990;-1.608;2023-09-30T00:33:57;24.00;59.00
49379;DHT22;35254;47.990;-1.608;2023-09-30T00:36:23;24.00;58.90
49379;DHT22;35254;47.990;-1.608;2023-09-30T00:38:49;24.00;58.80
49379;DHT22;35254;47.990;-1.608;2023-09-30T00:41:14;23.90;58.80
49379;DHT22;35254;47.990;-1.608;2023-09-30T00:43:40;23.90;58.90
49379;DHT22;35254;47.990;-1.608;2023-09-30T00:46:26;23.90;58.80
49379;DHT22;35254;47.990;-1.608;2023-09-30T00:48:53;23.90;58.80
49379;DHT22;35254;47.990;-1.608;2023-09-30T00:51:19;23.90;58.80
49379;DHT22;35254;47.990;-1.608;2023-09-30T00:53:45;23.90;58.70
49379;DHT22;35254;47.990;-1.608;2023-09-30T00:56:11;23.90;58.70
49379;DHT22;35254;47.990;-1.608;2023-09-30T00:58:38;23.90;58.80
49379;DHT22;35254;47.990;-1.608;2023-09-30T01:01:04;23.90;58.80
49379;DHT22;35254;47.990;-1.608;2023-09-30T01:03:30;23.90;58.80
49379;DHT22;35254;47.990;-1.608;2023-09-30T01:05:56;23.90;58.80
49379;DHT22;35254;47.990;-1.608;2023-09-30T01:08:21;23.90;58.80
49379;DHT22;35254;47.990;-1.608;2023-09-30T01:10:48;23.90;58.70
49379;DHT22;35254;47.990;-1.608;2023-09-30T01:13:13;23.90;58.80
49379;DHT22;35254;47.990;-1.608;2023-09-30T01:15:39;23.80;58.70
49379;DHT22;35254;47.990;-1.608;2023-09-30T01:18:05;23.90;58.80
49379;DHT22;35254;47.990;-1.608;2023-09-30T01:20:31;23.90;58.70
49379;DHT22;35254;47.990;-1.608;2023-09-30T01:22:57;23.80;58.70
49379;DHT22;35254;47.990;-1.608;2023-09-30T01:25:27;23.80;58.80
49379;DHT22;35254;47.990;-1.608;2023-09-30T01:27:53;23.80;58.80
49379;DHT22;35254;47.990;-1.608;2023-09-30T01:30:19;23.80;58.80
49379;DHT22;35254;47.990;-1.608;2023-09-30T01:32:47;23.80;58.70
49379;DHT22;35254;47.990;-1.608;2023-09-30T01:35:13;23.80;58.60
49379;DHT22;35254;47.990;-1.608;2023-09-30T01:37:39;23.80;58.60
49379;DHT22;35254;47.990;-1.608;2023-09-30T01:40:05;23.80;58.70
49379;DHT22;35254;47.990;-1.608;2023-09-30T01:42:33;23.80;58.70
49379;DHT22;35254;47.990;-1.608;2023-09-30T01:44:59;23.80;58.70
49379;DHT22;35254;47.990;-1.608;2023-09-30T01:47:24;23.80;58.70
49379;DHT22;35254;47.990;-1.608;2023-09-30T01:49:50;23.80;58.60
49379;DHT22;35254;47.990;-1.608;2023-09-30T01:52:16;23.80;58.60
49379;DHT22;35254;47.990;-1.608;2023-09-30T01:54:41;23.80;58.60
49379;DHT22;35254;47.990;-1.608;2023-09-30T01:57:07;23.70;58.60
49379;DHT22;35254;47.990;-1.608;2023-09-30T01:59:32;23.80;58.70
49379;DHT22;35254;47.990;-1.608;2023-09-30T02:01:58;23.80;58.70
49379;DHT22;35254;47.990;-1.608;2023-09-30T02:04:24;23.80;58.60
49379;DHT22;35254;47.990;-1.608;2023-09-30T02:06:49;23.70;58.60
49379;DHT22;35254;47.990;-1.608;2023-09-30T02:09:15;23.70;58.70
49379;DHT22;35254;47.990;-1.608;2023-09-30T02:11:41;23.70;58.70
49379;DHT22;35254;47.990;-1.608;2023-09-30T02:14:07;23.70;58.70
49379;DHT22;35254;47.990;-1.608;2023-09-30T02:16:33;23.70;58.60
49379;DHT22;35254;47.990;-1.608;2023-09-30T02:18:58;23.70;58.50
49379;DHT22;35254;47.990;-1.608;2023-09-30T02:21:24;23.70;58.50
49379;DHT22;35254;47.990;-1.608;2023-09-30T02:23:50;23.70;58.60
49379;DHT22;35254;47.990;-1.608;2023-09-30T02:26:20;23.70;58.70
49379;DHT22;35254;47.990;-1.608;2023-09-30T02:28:46;23.70;58.60
49379;DHT22;35254;47.990;-1.608;2023-09-30T02:31:12;23.70;58.70
49379;DHT22;35254;47.990;-1.608;2023-09-30T02:33:38;23.70;58.70
49379;DHT22;35254;47.990;-1.608;2023-09-30T02:36:07;23.70;58.60
49379;DHT22;35254;47.990;-1.608;2023-09-30T02:38:34;23.70;58.50
49379;DHT22;35254;47.990;-1.608;2023-09-30T02:41:02;23.70;58.50
49379;DHT22;35254;47.990;-1.608;2023-09-30T02:43:28;23.70;58.70
49379;DHT22;35254;47.990;-1.608;2023-09-30T02:45:53;23.70;58.50
49379;DHT22;35254;47.990;-1.608;2023-09-30T02:48:19;23.70;58.40
49379;DHT22;35254;47.990;-1.608;2023-09-30T02:50:45;23.70;58.50
49379;DHT22;35254;47.990;-1.608;2023-09-30T02:53:11;23.70;58.50
49379;DHT22;35254;47.990;-1.608;2023-09-30T02:55:38;23.70;58.60
49379;DHT22;35254;47.990;-1.608;2023-09-30T02:58:04;23.70;58.50
49379;DHT22;35254;47.990;-1.608;2023-09-30T03:00:30;23.70;58.30
49379;DHT22;35254;47.990;-1.608;2023-09-30T03:03:01;23.70;58.40
49379;DHT22;35254;47.990;-1.608;2023-09-30T03:05:27;23.70;58.30
49379;DHT22;35254;47.990;-1.608;2023-09-30T03:07:55;23.70;58.50
49379;DHT22;35254;47.990;-1.608;2023-09-30T03:10:21;23.70;58.80
49379;DHT22;35254;47.990;-1.608;2023-09-30T03:12:49;23.70;58.40
49379;DHT22;35254;47.990;-1.608;2023-09-30T03:15:16;23.60;58.70
49379;DHT22;35254;47.990;-1.608;2023-09-30T03:17:42;23.60;58.40
49379;DHT22;35254;47.990;-1.608;2023-09-30T03:20:09;23.70;58.30
49379;DHT22;35254;47.990;-1.608;2023-09-30T03:22:39;23.70;58.20
49379;DHT22;35254;47.990;-1.608;2023-09-30T03:25:06;23.70;58.30
49379;DHT22;35254;47.990;-1.608;2023-09-30T03:27:35;23.60;58.20
49379;DHT22;35254;47.990;-1.608;2023-09-30T03:30:06;23.60;58.10
49379;DHT22;35254;47.990;-1.608;2023-09-30T03:32:32;23.60;58.00
49379;DHT22;35254;47.990;-1.608;2023-09-30T03:35:02;23.60;58.10
49379;DHT22;35254;47.990;-1.608;2023-09-30T03:37:28;23.60;58.10
49379;DHT22;35254;47.990;-1.608;2023-09-30T03:39:54;23.60;58.40
49379;DHT22;35254;47.990;-1.608;2023-09-30T03:42:20;23.60;58.20
49379;DHT22;35254;47.990;-1.608;2023-09-30T03:44:46;23.60;58.10
49379;DHT22;35254;47.990;-1.608;2023-09-30T03:47:13;23.60;58.40
49379;DHT22;35254;47.990;-1.608;2023-09-30T03:49:39;23.60;58.90
49379;DHT22;35254;47.990;-1.608;2023-09-30T03:52:05;23.60;58.20
49379;DHT22;35254;47.990;-1.608;2023-09-30T03:54:31;23.60;59.10
49379;DHT22;35254;47.990;-1.608;2023-09-30T03:56:57;23.60;58.30
49379;DHT22;35254;47.990;-1.608;2023-09-30T03:59:23;23.60;58.20
49379;DHT22;35254;47.990;-1.608;2023-09-30T04:01:48;23.60;58.50
49379;DHT22;35254;47.990;-1.608;2023-09-30T04:04:14;23.60;58.20
49379;DHT22;35254;47.990;-1.608;2023-09-30T04:06:39;23.60;58.60
49379;DHT22;35254;47.990;-1.608;2023-09-30T04:09:05;23.60;58.20
49379;DHT22;35254;47.990;-1.608;2023-09-30T04:11:37;23.50;57.90
49379;DHT22;35254;47.990;-1.608;2023-09-30T04:14:07;23.60;58.00
49379;DHT22;35254;47.990;-1.608;2023-09-30T04:16:33;23.60;57.90
49379;DHT22;35254;47.990;-1.608;2023-09-30T04:18:59;23.50;57.90
49379;DHT22;35254;47.990;-1.608;2023-09-30T04:21:25;23.60;57.80
49379;DHT22;35254;47.990;-1.608;2023-09-30T04:23:52;23.50;57.90
49379;DHT22;35254;47.990;-1.608;2023-09-30T04:26:18;23.50;57.80
49379;DHT22;35254;47.990;-1.608;2023-09-30T04:28:45;23.50;57.90
49379;DHT22;35254;47.990;-1.608;2023-09-30T04:31:10;23.50;57.90
49379;DHT22;35254;47.990;-1.608;2023-09-30T04:33:39;23.50;57.90
49379;DHT22;35254;47.990;-1.608;2023-09-30T04:36:06;23.50;57.80
49379;DHT22;35254;47.990;-1.608;2023-09-30T04:38:34;23.50;58.30
49379;DHT22;35254;47.990;-1.608;2023-09-30T04:40:59;23.50;57.90
49379;DHT22;35254;47.990;-1.608;2023-09-30T04:43:26;23.50;57.90
49379;DHT22;35254;47.990;-1.608;2023-09-30T04:45:54;23.50;57.70
49379;DHT22;35254;47.990;-1.608;2023-09-30T04:48:23;23.40;57.80
49379;DHT22;35254;47.990;-1.608;2023-09-30T04:50:49;23.40;57.70
49379;DHT22;35254;47.990;-1.608;2023-09-30T04:53:14;23.40;57.70
49379;DHT22;35254;47.990;-1.608;2023-09-30T04:55:43;23.40;57.60
49379;DHT22;35254;47.990;-1.608;2023-09-30T04:58:08;23.50;57.60
49379;DHT22;35254;47.990;-1.608;2023-09-30T05:00:34;23.40;57.50
49379;DHT22;35254;47.990;-1.608;2023-09-30T05:03:00;23.40;57.70
49379;DHT22;35254;47.990;-1.608;2023-09-30T05:05:26;23.40;57.60
49379;DHT22;35254;47.990;-1.608;2023-09-30T05:07:52;23.30;57.60
49379;DHT22;35254;47.990;-1.608;2023-09-30T05:10:18;23.40;57.60
49379;DHT22;35254;47.990;-1.608;2023-09-30T05:12:44;23.40;57.60
49379;DHT22;35254;47.990;-1.608;2023-09-30T05:15:14;23.40;57.60
49379;DHT22;35254;47.990;-1.608;2023-09-30T05:17:45;23.40;57.60
49379;DHT22;35254;47.990;-1.608;2023-09-30T05:20:11;23.40;57.60
49379;DHT22;35254;47.990;-1.608;2023-09-30T05:22:39;23.40;57.70
49379;DHT22;35254;47.990;-1.608;2023-09-30T05:25:14;23.40;57.70
49379;DHT22;35254;47.990;-1.608;2023-09-30T05:27:43;23.40;57.50
49379;DHT22;35254;47.990;-1.608;2023-09-30T05:30:10;23.30;57.50
49379;DHT22;35254;47.990;-1.608;2023-09-30T05:32:37;23.30;58.10
49379;DHT22;35254;47.990;-1.608;2023-09-30T05:35:07;23.40;58.30
49379;DHT22;35254;47.990;-1.608;2023-09-30T05:37:41;23.30;58.90
49379;DHT22;35254;47.990;-1.608;2023-09-30T05:40:08;23.30;58.90
49379;DHT22;35254;47.990;-1.608;2023-09-30T05:42:53;23.30;58.90
49379;DHT22;35254;47.990;-1.608;2023-09-30T05:45:19;23.30;58.60
49379;DHT22;35254;47.990;-1.608;2023-09-30T05:47:45;23.40;58.70
49379;DHT22;35254;47.990;-1.608;2023-09-30T05:50:11;23.30;58.50
49379;DHT22;35254;47.990;-1.608;2023-09-30T05:52:43;23.30;58.50
49379;DHT22;35254;47.990;-1.608;2023-09-30T05:55:10;23.30;58.70
49379;DHT22;35254;47.990;-1.608;2023-09-30T05:57:36;23.30;58.50
49379;DHT22;35254;47.990;-1.608;2023-09-30T06:00:03;23.30;58.50
49379;DHT22;35254;47.990;-1.608;2023-09-30T06:02:40;23.30;58.50
49379;DHT22;35254;47.990;-1.608;2023-09-30T06:05:06;23.30;58.30
49379;DHT22;35254;47.990;-1.608;2023-09-30T06:07:32;23.30;57.90
49379;DHT22;35254;47.990;-1.608;2023-09-30T06:09:59;23.30;58.10
49379;DHT22;35254;47.990;-1.608;2023-09-30T06:12:28;23.30;58.10
49379;DHT22;35254;47.990;-1.608;2023-09-30T06:14:54;23.20;58.00
49379;DHT22;35254;47.990;-1.608;2023-09-30T06:17:19;23.20;58.30
49379;DHT22;35254;47.990;-1.608;2023-09-30T06:19:48;23.20;58.20
49379;DHT22;35254;47.990;-1.608;2023-09-30T06:22:16;23.20;58.50
49379;DHT22;35254;47.990;-1.608;2023-09-30T06:24:41;23.20;58.10
49379;DHT22;35254;47.990;-1.608;2023-09-30T06:27:07;23.20;58.40
49379;DHT22;35254;47.990;-1.608;2023-09-30T06:29:33;23.20;58.40
49379;DHT22;35254;47.990;-1.608;2023-09-30T06:31:59;23.30;58.20
49379;DHT22;35254;47.990;-1.608;2023-09-30T06:34:24;23.20;58.30
49379;DHT22;35254;47.990;-1.608;2023-09-30T06:36:50;23.20;58.50
49379;DHT22;35254;47.990;-1.608;2023-09-30T06:39:18;23.20;58.40
49379;DHT22;35254;47.990;-1.608;2023-09-30T06:41:44;23.20;58.40
49379;DHT22;35254;47.990;-1.608;2023-09-30T06:44:11;23.20;58.80
49379;DHT22;35254;47.990;-1.608;2023-09-30T06:46:38;23.20;58.60
49379;DHT22;35254;47.990;-1.608;2023-09-30T06:49:04;23.20;58.90
49379;DHT22;35254;47.990;-1.608;2023-09-30T06:51:30;23.30;58.00
49379;DHT22;35254;47.990;-1.608;2023-09-30T06:53:56;23.20;57.30
49379;DHT22;35254;47.990;-1.608;2023-09-30T06:56:22;23.30;58.00
49379;DHT22;35254;47.990;-1.608;2023-09-30T06:58:47;23.20;58.00
49379;DHT22;35254;47.990;-1.608;2023-09-30T07:01:16;23.20;57.40
49379;DHT22;35254;47.990;-1.608;2023-09-30T07:03:45;23.20;57.60
49379;DHT22;35254;47.990;-1.608;2023-09-30T07:06:11;23.20;57.50
49379;DHT22;35254;47.990;-1.608;2023-09-30T07:08:36;23.30;57.30
49379;DHT22;35254;47.990;-1.608;2023-09-30T07:11:02;23.20;57.90
49379;DHT22;35254;47.990;-1.608;2023-09-30T07:13:30;23.20;57.80
49379;DHT22;35254;47.990;-1.608;2023-09-30T07:15:56;23.30;57.90
49379;DHT22;35254;47.990;-1.608;2023-09-30T07:18:22;23.30;58.30
49379;DHT22;35254;47.990;-1.608;2023-09-30T07:20:50;23.30;58.00
49379;DHT22;35254;47.990;-1.608;2023-09-30T07:23:16;23.30;57.90
49379;DHT22;35254;47.990;-1.608;2023-09-30T07:25:42;23.40;58.50
49379;DHT22;35254;47.990;-1.608;2023-09-30T07:28:08;23.40;58.80
49379;DHT22;35254;47.990;-1.608;2023-09-30T07:30:37;23.40;58.10
49379;DHT22;35254;47.990;-1.608;2023-09-30T07:33:03;23.40;57.10
49379;DHT22;35254;47.990;-1.608;2023-09-30T07:35:29;23.40;57.20
49379;DHT22;35254;47.990;-1.608;2023-09-30T07:37:55;23.40;57.20
49379;DHT22;35254;47.990;-1.608;2023-09-30T07:40:21;23.50;58.00
49379;DHT22;35254;47.990;-1.608;2023-09-30T07:42:47;23.50;55.50
49379;DHT22;35254;47.990;-1.608;2023-09-30T07:45:13;23.50;56.40
49379;DHT22;35254;47.990;-1.608;2023-09-30T07:47:43;23.50;57.30
49379;DHT22;35254;47.990;-1.608;2023-09-30T07:50:09;23.60;58.20
49379;DHT22;35254;47.990;-1.608;2023-09-30T07:52:36;23.60;57.60
49379;DHT22;35254;47.990;-1.608;2023-09-30T07:55:01;23.50;57.40
49379;DHT22;35254;47.990;-1.608;2023-09-30T07:57:30;23.50;58.00
49379;DHT22;35254;47.990;-1.608;2023-09-30T07:59:55;23.50;56.50
49379;DHT22;35254;47.990;-1.608;2023-09-30T08:02:21;23.40;55.80
49379;DHT22;35254;47.990;-1.608;2023-09-30T08:04:48;23.40;56.30
49379;DHT22;35254;47.990;-1.608;2023-09-30T08:07:13;23.30;55.60
49379;DHT22;35254;47.990;-1.608;2023-09-30T08:09:39;23.30;55.50
49379;DHT22;35254;47.990;-1.608;2023-09-30T08:12:05;23.30;56.00
49379;DHT22;35254;47.990;-1.608;2023-09-30T08:14:31;23.30;56.50
49379;DHT22;35254;47.990;-1.608;2023-09-30T08:16:57;23.20;56.70
49379;DHT22;35254;47.990;-1.608;2023-09-30T08:19:23;23.20;57.00
49379;DHT22;35254;47.990;-1.608;2023-09-30T08:21:48;23.20;57.30
49379;DHT22;35254;47.990;-1.608;2023-09-30T08:24:14;23.20;57.30
49379;DHT22;35254;47.990;-1.608;2023-09-30T08:26:40;23.20;57.40
49379;DHT22;35254;47.990;-1.608;2023-09-30T08:29:06;23.20;57.40
49379;DHT22;35254;47.990;-1.608;2023-09-30T08:31:32;23.20;57.60
49379;DHT22;35254;47.990;-1.608;2023-09-30T08:33:58;23.20;57.80
49379;DHT22;35254;47.990;-1.608;2023-09-30T08:36:24;23.20;57.80
49379;DHT22;35254;47.990;-1.608;2023-09-30T08:38:50;23.20;58.00
49379;DHT22;35254;47.990;-1.608;2023-09-30T08:41:32;23.20;58.00
49379;DHT22;35254;47.990;-1.608;2023-09-30T08:44:02;23.20;58.30
49379;DHT22;35254;47.990;-1.608;2023-09-30T08:46:34;23.20;57.80
49379;DHT22;35254;47.990;-1.608;2023-09-30T08:49:04;23.20;58.00
49379;DHT22;35254;47.990;-1.608;2023-09-30T08:51:31;23.20;58.10
49379;DHT22;35254;47.990;-1.608;2023-09-30T08:53:58;23.20;58.00
49379;DHT22;35254;47.990;-1.608;2023-09-30T08:56:28;23.20;58.10
49379;DHT22;35254;47.990;-1.608;2023-09-30T08:58:58;23.20;57.90
49379;DHT22;35254;47.990;-1.608;2023-09-30T09:01:34;23.20;58.20
49379;DHT22;35254;47.990;-1.608;2023-09-30T09:04:00;23.20;58.30
49379;DHT22;35254;47.990;-1.608;2023-09-30T09:06:27;23.20;58.30
49379;DHT22;35254;47.990;-1.608;2023-09-30T09:08:53;23.20;58.60
49379;DHT22;35254;47.990;-1.608;2023-09-30T09:11:19;23.20;58.60
49379;DHT22;35254;47.990;-1.608;2023-09-30T09:13:51;23.20;58.40
49379;DHT22;35254;47.990;-1.608;2023-09-30T09:16:21;23.20;58.80
49379;DHT22;35254;47.990;-1.608;2023-09-30T09:18:48;23.10;58.50
49379;DHT22;35254;47.990;-1.608;2023-09-30T09:21:18;23.10;58.80
49379;DHT22;35254;47.990;-1.608;2023-09-30T09:23:50;23.10;58.80
49379;DHT22;35254;47.990;-1.608;2023-09-30T09:26:23;23.10;58.70
49379;DHT22;35254;47.990;-1.608;2023-09-30T09:28:49;23.10;58.40
49379;DHT22;35254;47.990;-1.608;2023-09-30T09:31:22;23.10;58.60
49379;DHT22;35254;47.990;-1.608;2023-09-30T09:33:49;23.20;58.60
49379;DHT22;35254;47.990;-1.608;2023-09-30T09:36:15;23.10;58.30
49379;DHT22;35254;47.990;-1.608;2023-09-30T09:38:49;23.20;58.50
49379;DHT22;35254;47.990;-1.608;2023-09-30T09:41:15;23.10;58.10
49379;DHT22;35254;47.990;-1.608;2023-09-30T09:43:42;23.20;58.70
49379;DHT22;35254;47.990;-1.608;2023-09-30T09:46:09;23.20;58.70
49379;DHT22;35254;47.990;-1.608;2023-09-30T09:48:38;23.20;58.80
49379;DHT22;35254;47.990;-1.608;2023-09-30T09:51:04;23.20;58.50
49379;DHT22;35254;47.990;-1.608;2023-09-30T09:53:36;23.20;58.60
49379;DHT22;35254;47.990;-1.608;2023-09-30T09:56:04;23.10;58.50
49379;DHT22;35254;47.990;-1.608;2023-09-30T09:58:35;23.20;58.90
49379;DHT22;35254;47.990;-1.608;2023-09-30T10:01:05;23.10;58.40
49379;DHT22;35254;47.990;-1.608;2023-09-30T10:03:31;23.10;58.50
49379;DHT22;35254;47.990;-1.608;2023-09-30T10:05:58;23.10;58.50
49379;DHT22;35254;47.990;-1.608;2023-09-30T10:08:39;23.10;58.40
49379;DHT22;35254;47.990;-1.608;2023-09-30T10:11:06;23.10;58.50
49379;DHT22;35254;47.990;-1.608;2023-09-30T10:13:54;23.10;58.80
49379;DHT22;35254;47.990;-1.608;2023-09-30T10:16:49;23.10;58.80
49379;DHT22;35254;47.990;-1.608;2023-09-30T10:19:16;23.10;58.80
49379;DHT22;35254;47.990;-1.608;2023-09-30T10:24:57;23.20;58.60
49379;DHT22;35254;47.990;-1.608;2023-09-30T10:35:43;23.10;58.70
49379;DHT22;35254;47.990;-1.608;2023-09-30T10:40:53;23.20;58.90
49379;DHT22;35254;47.990;-1.608;2023-09-30T10:43:48;23.10;58.70
49379;DHT22;35254;47.990;-1.608;2023-09-30T10:48:51;23.10;59.00
49379;DHT22;35254;47.990;-1.608;2023-09-30T10:51:19;23.20;58.70
49379;DHT22;35254;47.990;-1.608;2023-09-30T10:53:51;23.10;58.60
49379;DHT22;35254;47.990;-1.608;2023-09-30T10:56:18;23.10;58.50
49379;DHT22;35254;47.990;-1.608;2023-09-30T10:58:46;23.20;58.80
49379;DHT22;35254;47.990;-1.608;2023-09-30T11:01:13;23.20;59.00
49379;DHT22;35254;47.990;-1.608;2023-09-30T11:03:40;23.20;59.40
49379;DHT22;35254;47.990;-1.608;2023-09-30T11:06:07;23.20;59.00
49379;DHT22;35254;47.990;-1.608;2023-09-30T11:08:33;23.20;58.80
49379;DHT22;35254;47.990;-1.608;2023-09-30T11:10:59;23.20;59.00
49379;DHT22;35254;47.990;-1.608;2023-09-30T11:13:34;23.20;58.80
49379;DHT22;35254;47.990;-1.608;2023-09-30T11:16:04;23.20;59.00
49379;DHT22;35254;47.990;-1.608;2023-09-30T11:18:31;23.20;59.20
49379;DHT22;35254;47.990;-1.608;2023-09-30T11:21:04;23.20;59.20
49379;DHT22;35254;47.990;-1.608;2023-09-30T11:23:31;23.20;59.00
49379;DHT22;35254;47.990;-1.608;2023-09-30T11:25:57;23.20;59.10
49379;DHT22;35254;47.990;-1.608;2023-09-30T11:28:23;23.20;58.90
49379;DHT22;35254;47.990;-1.608;2023-09-30T11:30:58;23.20;59.20
49379;DHT22;35254;47.990;-1.608;2023-09-30T11:33:25;23.20;58.80
49379;DHT22;35254;47.990;-1.608;2023-09-30T11:36:05;23.20;59.10
49379;DHT22;35254;47.990;-1.608;2023-09-30T11:38:31;23.20;59.20
49379;DHT22;35254;47.990;-1.608;2023-09-30T11:41:05;23.20;59.10
49379;DHT22;35254;47.990;-1.608;2023-09-30T11:43:33;23.20;59.20
49379;DHT22;35254;47.990;-1.608;2023-09-30T11:46:12;23.20;59.20
49379;DHT22;35254;47.990;-1.608;2023-09-30T11:48:56;23.20;59.30
49379;DHT22;35254;47.990;-1.608;2023-09-30T11:51:22;23.20;59.30
49379;DHT22;35254;47.990;-1.608;2023-09-30T11:53:52;23.20;59.00
49379;DHT22;35254;47.990;-1.608;2023-09-30T11:56:19;23.20;59.20
49379;DHT22;35254;47.990;-1.608;2023-09-30T11:58:45;23.20;58.90
49379;DHT22;35254;47.990;-1.608;2023-09-30T12:01:11;23.20;59.20
49379;DHT22;35254;47.990;-1.608;2023-09-30T12:03:39;23.20;59.10
49379;DHT22;35254;47.990;-1.608;2023-09-30T12:06:06;23.20;58.80
49379;DHT22;35254;47.990;-1.608;2023-09-30T12:08:32;23.20;58.90
49379;DHT22;35254;47.990;-1.608;2023-09-30T12:10:57;23.20;59.40
49379;DHT22;35254;47.990;-1.608;2023-09-30T12:13:25;23.20;58.90
49379;DHT22;35254;47.990;-1.608;2023-09-30T12:15:51;23.20;59.20
49379;DHT22;35254;47.990;-1.608;2023-09-30T12:18:18;23.20;59.40
49379;DHT22;35254;47.990;-1.608;2023-09-30T12:20:49;23.20;59.30
49379;DHT22;35254;47.990;-1.608;2023-09-30T12:23:15;23.20;59.20
49379;DHT22;35254;47.990;-1.608;2023-09-30T12:25:43;23.20;59.30
49379;DHT22;35254;47.990;-1.608;2023-09-30T12:28:09;23.30;59.40
49379;DHT22;35254;47.990;-1.608;2023-09-30T12:30:35;23.20;59.50
49379;DHT22;35254;47.990;-1.608;2023-09-30T12:33:01;23.30;59.50
49379;DHT22;35254;47.990;-1.608;2023-09-30T12:35:27;23.30;59.60
49379;DHT22;35254;47.990;-1.608;2023-09-30T12:37:52;23.30;59.50
49379;DHT22;35254;47.990;-1.608;2023-09-30T12:40:18;23.30;59.60
49379;DHT22;35254;47.990;-1.608;2023-09-30T12:42:44;23.30;59.40
49379;DHT22;35254;47.990;-1.608;2023-09-30T12:45:11;23.30;59.40
49379;DHT22;35254;47.990;-1.608;2023-09-30T12:47:38;23.30;59.50
49379;DHT22;35254;47.990;-1.608;2023-09-30T12:50:04;23.30;59.90
49379;DHT22;35254;47.990;-1.608;2023-09-30T12:52:30;23.30;59.70
49379;DHT22;35254;47.990;-1.608;2023-09-30T12:54:58;23.40;59.40
49379;DHT22;35254;47.990;-1.608;2023-09-30T12:57:24;23.30;59.70
49379;DHT22;35254;47.990;-1.608;2023-09-30T12:59:49;23.30;59.80
49379;DHT22;35254;47.990;-1.608;2023-09-30T13:02:15;23.40;59.20
49379;DHT22;35254;47.990;-1.608;2023-09-30T13:04:44;23.40;59.90
49379;DHT22;35254;47.990;-1.608;2023-09-30T13:07:10;23.40;59.40
49379;DHT22;35254;47.990;-1.608;2023-09-30T13:09:40;23.40;59.80
49379;DHT22;35254;47.990;-1.608;2023-09-30T13:12:06;23.30;59.80
49379;DHT22;35254;47.990;-1.608;2023-09-30T13:14:32;23.40;59.60
49379;DHT22;35254;47.990;-1.608;2023-09-30T13:16:58;23.40;59.30
49379;DHT22;35254;47.990;-1.608;2023-09-30T13:19:23;23.40;59.60
49379;DHT22;35254;47.990;-1.608;2023-09-30T13:21:50;23.40;59.40
49379;DHT22;35254;47.990;-1.608;2023-09-30T13:24:16;23.40;59.30
49379;DHT22;35254;47.990;-1.608;2023-09-30T13:26:42;23.40;59.70
49379;DHT22;35254;47.990;-1.608;2023-09-30T13:29:07;23.40;59.90
49379;DHT22;35254;47.990;-1.608;2023-09-30T13:31:35;23.40;60.00
49379;DHT22;35254;47.990;-1.608;2023-09-30T13:34:05;23.40;59.60
49379;DHT22;35254;47.990;-1.608;2023-09-30T13:36:30;23.40;59.80
49379;DHT22;35254;47.990;-1.608;2023-09-30T13:38:56;23.40;59.80
49379;DHT22;35254;47.990;-1.608;2023-09-30T13:41:22;23.40;59.80
49379;DHT22;35254;47.990;-1.608;2023-09-30T13:43:47;23.40;59.60
49379;DHT22;35254;47.990;-1.608;2023-09-30T13:46:13;23.40;59.90
49379;DHT22;35254;47.990;-1.608;2023-09-30T13:48:39;23.40;59.80
49379;DHT22;35254;47.990;-1.608;2023-09-30T13:51:10;23.40;59.90
49379;DHT22;35254;47.990;-1.608;2023-09-30T13:53:37;23.50;60.10
49379;DHT22;35254;47.990;-1.608;2023-09-30T13:56:02;23.40;60.20
49379;DHT22;35254;47.990;-1.608;2023-09-30T13:58:31;23.50;59.90
49379;DHT22;35254;47.990;-1.608;2023-09-30T14:00:56;23.50;60.30
49379;DHT22;35254;47.990;-1.608;2023-09-30T14:03:22;23.50;60.00
49379;DHT22;35254;47.990;-1.608;2023-09-30T14:05:50;23.50;60.30
49379;DHT22;35254;47.990;-1.608;2023-09-30T14:08:16;23.50;59.90
49379;DHT22;35254;47.990;-1.608;2023-09-30T14:10:41;23.50;60.20
49379;DHT22;35254;47.990;-1.608;2023-09-30T14:13:10;23.50;60.10
49379;DHT22;35254;47.990;-1.608;2023-09-30T14:15:35;23.50;60.20
49379;DHT22;35254;47.990;-1.608;2023-09-30T14:18:02;23.50;60.00
49379;DHT22;35254;47.990;-1.608;2023-09-30T14:20:28;23.50;60.00
49379;DHT22;35254;47.990;-1.608;2023-09-30T14:22:54;23.50;60.00
49379;DHT22;35254;47.990;-1.608;2023-09-30T14:25:22;23.60;59.90
49379;DHT22;35254;47.990;-1.608;2023-09-30T14:27:48;23.50;59.80
49379;DHT22;35254;47.990;-1.608;2023-09-30T14:30:14;23.50;60.10
49379;DHT22;35254;47.990;-1.608;2023-09-30T14:32:41;23.50;59.80
49379;DHT22;35254;47.990;-1.608;2023-09-30T14:35:08;23.50;59.80
49379;DHT22;35254;47.990;-1.608;2023-09-30T14:37:35;23.60;59.70
49379;DHT22;35254;47.990;-1.608;2023-09-30T14:40:01;23.50;59.90
49379;DHT22;35254;47.990;-1.608;2023-09-30T14:42:30;23.50;60.10
49379;DHT22;35254;47.990;-1.608;2023-09-30T14:44:56;23.60;60.10
49379;DHT22;35254;47.990;-1.608;2023-09-30T14:47:22;23.50;59.90
49379;DHT22;35254;47.990;-1.608;2023-09-30T14:49:47;23.60;60.00
49379;DHT22;35254;47.990;-1.608;2023-09-30T14:52:14;23.60;60.00
49379;DHT22;35254;47.990;-1.608;2023-09-30T14:54:41;23.60;59.90
49379;DHT22;35254;47.990;-1.608;2023-09-30T14:57:06;23.60;59.80
49379;DHT22;35254;47.990;-1.608;2023-09-30T14:59:33;23.60;60.10
49379;DHT22;35254;47.990;-1.608;2023-09-30T15:01:59;23.60;60.10
49379;DHT22;35254;47.990;-1.608;2023-09-30T15:04:25;23.60;60.10
49379;DHT22;35254;47.990;-1.608;2023-09-30T15:06:51;23.60;59.90
49379;DHT22;35254;47.990;-1.608;2023-09-30T15:09:17;23.60;60.00
49379;DHT22;35254;47.990;-1.608;2023-09-30T15:11:42;23.60;59.90
49379;DHT22;35254;47.990;-1.608;2023-09-30T15:14:08;23.60;59.90
49379;DHT22;35254;47.990;-1.608;2023-09-30T15:16:34;23.60;60.00
49379;DHT22;35254;47.990;-1.608;2023-09-30T15:19:00;23.60;59.90
49379;DHT22;35254;47.990;-1.608;2023-09-30T15:21:26;23.60;60.00
49379;DHT22;35254;47.990;-1.608;2023-09-30T15:23:52;23.60;60.00
49379;DHT22;35254;47.990;-1.608;2023-09-30T15:26:18;23.60;59.90
49379;DHT22;35254;47.990;-1.608;2023-09-30T15:28:44;23.60;59.80
49379;DHT22;35254;47.990;-1.608;2023-09-30T15:31:13;23.70;59.90
49379;DHT22;35254;47.990;-1.608;2023-09-30T15:33:38;23.60;59.80